Time;durP1;ratioP1;P1;durP2;ratioP2;P2;SDS_P1;SDS_P2;PMS_P1;PMS_P2;Temp;Humidity;BMP_temperature;BMP_pressure;BME280_temperature;BME280_humidity;BME280_pressure;Samples;Min_cycle;Max_cycle;Signal;HPM_P1;HPM_P2
2022/09/28 00:02:00;;;;;;;;;;;;;;;;;;4962211;28;19942;-64
2022/09/28 00:04:25;;;;;;;;;;;;;;;;;;4943777;28;20412;-64
2022/09/28 00:06:51;;;;;;;;;;;;;;;;;;4945479;28;20012;-65
2022/09/28 00:09:16;;;;;;;;;;;;;;;;;;4961698;28;19921;-66
2022/09/28 00:11:42;;;;;;;;;;;;;;;;;;4928263;28;19926;-64
2022/09/28 00:14:10;;;;;;;;;;;;;;;;;;4936874;28;19919;-65
2022/09/28 00:16:35;;;;;;;;;;;;;;;;;;4943731;28;20813;-64
2022/09/28 00:19:01;;;;;;;;;;;;;;;;;;4944809;28;19922;-64
2022/09/28 00:21:30;;;;;;;;;;;;;;;;;;4945407;28;20872;-64
2022/09/28 00:24:17;;;;;;;;;;;;;;;;;;4928706;28;19929;-64
2022/09/28 00:26:43;;;;;;;;;;;;;;;;;;4929735;28;19928;-65
2022/09/28 00:29:08;;;;;;;;;;;;;;;;;;4950351;28;21692;-64
2022/09/28 00:31:34;;;;;;;;;;;;;;;;;;4932752;28;20025;-64
2022/09/28 00:33:59;;;;;;;;;;;;;;;;;;4948370;28;20316;-64
2022/09/28 00:36:26;;;;;;;;;;;;;;;;;;4939992;28;19933;-64
2022/09/28 00:38:55;;;;;;;;;;;;;;;;;;4940299;28;19922;-64
2022/09/28 00:41:23;;;;;;;;;;;;;;;;;;4918282;28;19924;-64
2022/09/28 00:43:48;;;;;;;;;;;;;;;;;;4950206;28;19918;-64
2022/09/28 00:46:14;;;;;;;;;;;;;;;;;;4940543;28;20452;-64
2022/09/28 00:48:39;;;;;;;;;;;;;;;;;;4951258;28;20373;-65
2022/09/28 00:51:04;;;;;;;;;;;;;;;;;;4949402;28;19925;-64
2022/09/28 00:53:30;;;;;;;;;;;;;;;;;;4932337;28;19918;-64
2022/09/28 00:55:58;;;;;;;;;;;;;;;;;;4948734;28;19922;-64
2022/09/28 00:58:24;;;;;;;;;;;;;;;;;;4930539;28;19998;-64
2022/09/28 01:00:51;;;;;;;;;;;;;;;;;;4923578;28;19945;-64
2022/09/28 01:03:18;;;;;;;;;;;;;;;;;;4931435;28;20013;-64
2022/09/28 01:05:43;;;;;;;;;;;;;;;;;;4930033;28;20412;-64
2022/09/28 01:08:09;;;;;;;;;;;;;;;;;;4945436;28;19922;-64
2022/09/28 01:10:35;;;;;;;;;;;;;;;;;;4948496;28;19961;-63
2022/09/28 01:13:04;;;;;;;;;;;;;;;;;;4931710;28;20495;-64
2022/09/28 01:15:29;;;;;;;;;;;;;;;;;;4929575;28;19965;-65
2022/09/28 01:18:04;;;;;;;;;;;;;;;;;;4947470;28;20052;-64
2022/09/28 01:20:51;;;;;;;;;;;;;;;;;;4949999;28;19934;-64
2022/09/28 01:23:16;;;;;;;;;;;;;;;;;;4946404;28;19918;-64
2022/09/28 01:25:44;;;;;;;;;;;;;;;;;;4940242;28;19976;-64
2022/09/28 01:28:19;;;;;;;;;;;;;;;;;;4949097;28;19929;-64
2022/09/28 01:30:45;;;;;;;;;;;;;;;;;;4948429;28;19968;-64
2022/09/28 01:33:19;;;;;;;;;;;;;;;;;;4933208;28;20044;-64
2022/09/28 01:35:48;;;;;;;;;;;;;;;;;;4949063;28;19922;-64
2022/09/28 01:38:16;;;;;;;;;;;;;;;;;;4930529;28;20356;-64
2022/09/28 01:40:41;;;;;;;;;;;;;;;;;;4915156;28;21942;-64
2022/09/28 01:43:06;;;;;;;;;;;;;;;;;;4936183;28;20033;-65
2022/09/28 01:48:03;;;;;;;;;;;;;;;;;;5000445;28;19940;-64
2022/09/28 01:50:28;;;;;;;;;;;;;;;;;;4981983;28;20004;-64
2022/09/28 01:53:05;;;;;;;;;;;;;;;;;;4975967;23;21789;-66
2022/09/28 01:55:33;;;;;;;;;;;;;;;;;;4946282;28;19910;-66
2022/09/28 01:57:59;;;;;;;;;;;;;;;;;;4930806;28;20005;-65
2022/09/28 02:00:24;;;;;;;;;;;;;;;;;;4940954;28;20576;-65
2022/09/28 02:02:52;;;;;;;;;;;;;;;;;;4909610;28;19954;-65
2022/09/28 02:05:20;;;;;;;;;;;;;;;;;;4932932;28;20057;-63
2022/09/28 02:07:45;;;;;;;;;;;;;;;;;;4920150;28;19922;-65
2022/09/28 02:10:11;;;;;;;;;;;;;;;;;;4929624;28;19981;-64
2022/09/28 02:12:36;;;;;;;;;;;;;;;;;;4927050;28;19922;-64
2022/09/28 02:15:09;;;;;;;;;;;;;;;;;;4921922;28;19922;-64
2022/09/28 02:17:56;;;;;;;;;;;;;;;;;;4940840;28;19918;-65
2022/09/28 02:20:21;;;;;;;;;;;;;;;;;;4921306;28;19960;-65
2022/09/28 02:22:50;;;;;;;;;;;;;;;;;;4910893;28;20005;-65
2022/09/28 02:25:18;;;;;;;;;;;;;;;;;;4923245;28;19928;-65
2022/09/28 02:27:44;;;;;;;;;;;;;;;;;;4937830;28;21219;-65
2022/09/28 02:30:09;;;;;;;;;;;;;;;;;;4929670;28;19922;-65
2022/09/28 02:33:03;;;;;;;;;;;;;;;;;;4941537;28;19926;-66
2022/09/28 02:35:34;;;;;;;;;;;;;;;;;;4910139;28;20362;-64
2022/09/28 02:38:05;;;;;;;;;;;;;;;;;;4939552;28;19952;-65
2022/09/28 02:40:30;;;;;;;;;;;;;;;;;;4919803;28;19930;-65
2022/09/28 02:42:55;;;;;;;;;;;;;;;;;;4940523;28;19973;-66
2022/09/28 02:45:25;;;;;;;;;;;;;;;;;;4923677;28;20801;-65
2022/09/28 02:47:51;;;;;;;;;;;;;;;;;;4929633;28;20921;-66
2022/09/28 02:50:21;;;;;;;;;;;;;;;;;;4940158;28;19922;-65
2022/09/28 02:52:49;;;;;;;;;;;;;;;;;;4937857;28;19953;-65
2022/09/28 02:55:14;;;;;;;;;;;;;;;;;;4924564;28;19922;-66
2022/09/28 02:57:49;;;;;;;;;;;;;;;;;;4925378;28;19972;-66
2022/09/28 03:00:14;;;;;;;;;;;;;;;;;;4911178;28;19930;-64
2022/09/28 03:02:42;;;;;;;;;;;;;;;;;;4911250;28;19972;-64
2022/09/28 03:05:12;;;;;;;;;;;;;;;;;;4927372;28;19918;-65
2022/09/28 03:07:38;;;;;;;;;;;;;;;;;;4935928;28;20009;-64
2022/09/28 03:10:03;;;;;;;;;;;;;;;;;;4938573;28;20475;-65
2022/09/28 03:12:29;;;;;;;;;;;;;;;;;;4927386;28;21847;-65
2022/09/28 03:15:02;;;;;;;;;;;;;;;;;;4938843;28;19965;-65
2022/09/28 03:17:30;;;;;;;;;;;;;;;;;;4938385;28;19926;-66
2022/09/28 03:19:55;;;;;;;;;;;;;;;;;;4920165;28;19933;-65
2022/09/28 03:22:20;;;;;;;;;;;;;;;;;;4939412;28;19922;-65
2022/09/28 03:24:46;;;;;;;;;;;;;;;;;;4939070;28;19919;-65
2022/09/28 03:27:11;;;;;;;;;;;;;;;;;;4917498;28;19929;-64
2022/09/28 03:29:39;;;;;;;;;;;;;;;;;;4935156;28;19918;-65
2022/09/28 03:32:09;;;;;;;;;;;;;;;;;;4912269;28;19933;-65
2022/09/28 03:34:35;;;;;;;;;;;;;;;;;;4936356;28;19926;-64
2022/09/28 03:37:00;;;;;;;;;;;;;;;;;;4938575;28;19930;-65
2022/09/28 03:39:27;;;;;;;;;;;;;;;;;;4939234;28;19925;-65
2022/09/28 03:41:52;;;;;;;;;;;;;;;;;;4920177;28;20007;-63
2022/09/28 03:44:18;;;;;;;;;;;;;;;;;;4911971;28;19926;-66
2022/09/28 03:46:43;;;;;;;;;;;;;;;;;;4937556;28;19946;-66
2022/09/28 03:49:11;;;;;;;;;;;;;;;;;;4932126;28;19929;-64
2022/09/28 03:51:37;;;;;;;;;;;;;;;;;;4940011;28;20514;-64
2022/09/28 03:54:03;;;;;;;;;;;;;;;;;;4929164;28;19937;-64
2022/09/28 03:56:28;;;;;;;;;;;;;;;;;;4921433;28;20290;-64
2022/09/28 03:58:56;;;;;;;;;;;;;;;;;;4919261;28;19922;-64
2022/09/28 04:01:22;;;;;;;;;;;;;;;;;;4934947;28;19922;-65
2022/09/28 04:03:47;;;;;;;;;;;;;;;;;;4938778;28;19926;-64
2022/09/28 04:06:12;;;;;;;;;;;;;;;;;;4921062;28;19926;-64
2022/09/28 04:08:38;;;;;;;;;;;;;;;;;;4925128;28;20843;-65
2022/09/28 04:11:05;;;;;;;;;;;;;;;;;;4920457;28;20128;-64
2022/09/28 04:13:31;;;;;;;;;;;;;;;;;;4911524;28;19928;-64
2022/09/28 04:15:59;;;;;;;;;;;;;;;;;;4919927;28;19918;-65
2022/09/28 04:18:24;;;;;;;;;;;;;;;;;;4919707;28;20854;-64
2022/09/28 04:20:51;;;;;;;;;;;;;;;;;;4940118;28;19926;-64
2022/09/28 04:23:19;;;;;;;;;;;;;;;;;;4940138;28;19933;-64
2022/09/28 04:25:47;;;;;;;;;;;;;;;;;;4913608;28;21928;-64
2022/09/28 04:30:59;;;;;;;;;;;;;;;;;;4920836;28;19924;-63
2022/09/28 04:33:27;;;;;;;;;;;;;;;;;;4925353;28;19933;-63
2022/09/28 04:35:53;;;;;;;;;;;;;;;;;;4938258;28;20028;-64
2022/09/28 04:38:18;;;;;;;;;;;;;;;;;;4928227;28;19918;-64
2022/09/28 04:40:46;;;;;;;;;;;;;;;;;;4915433;28;20018;-63
2022/09/28 04:43:11;;;;;;;;;;;;;;;;;;4926247;28;20024;-63
2022/09/28 04:45:36;;;;;;;;;;;;;;;;;;4911496;28;19918;-63
2022/09/28 04:48:01;;;;;;;;;;;;;;;;;;4942898;28;21878;-63
2022/09/28 04:50:28;;;;;;;;;;;;;;;;;;4944319;28;20045;-63
2022/09/28 04:52:56;;;;;;;;;;;;;;;;;;4913324;28;19957;-63
2022/09/28 04:55:21;;;;;;;;;;;;;;;;;;4929071;28;19954;-62
2022/09/28 04:57:48;;;;;;;;;;;;;;;;;;4942277;28;19918;-63
2022/09/28 05:00:15;;;;;;;;;;;;;;;;;;4942254;28;20296;-63
2022/09/28 05:02:44;;;;;;;;;;;;;;;;;;4925945;28;19926;-63
2022/09/28 05:05:09;;;;;;;;;;;;;;;;;;4927594;28;19922;-63
2022/09/28 05:07:34;;;;;;;;;;;;;;;;;;4941021;28;20001;-64
2022/09/28 05:10:00;;;;;;;;;;;;;;;;;;4924646;28;19980;-64
2022/09/28 05:12:27;;;;;;;;;;;;;;;;;;4941808;28;19918;-64
2022/09/28 05:14:53;;;;;;;;;;;;;;;;;;4929439;28;19918;-63
2022/09/28 05:17:18;;;;;;;;;;;;;;;;;;4921738;28;19923;-62
2022/09/28 05:19:46;;;;;;;;;;;;;;;;;;4924120;28;19965;-63
2022/09/28 05:22:14;;;;;;;;;;;;;;;;;;4927133;28;20590;-63
2022/09/28 05:24:40;;;;;;;;;;;;;;;;;;4909203;28;19922;-64
2022/09/28 05:27:07;;;;;;;;;;;;;;;;;;4938191;28;19929;-64
2022/09/28 05:29:33;;;;;;;;;;;;;;;;;;4938118;28;21787;-63
2022/09/28 05:32:00;;;;;;;;;;;;;;;;;;4916384;28;19922;-64
2022/09/28 05:34:25;;;;;;;;;;;;;;;;;;4926713;28;19923;-63
2022/09/28 05:36:51;;;;;;;;;;;;;;;;;;4937737;28;19984;-63
2022/09/28 05:39:19;;;;;;;;;;;;;;;;;;4941724;28;19922;-63
2022/09/28 05:41:44;;;;;;;;;;;;;;;;;;4939446;28;19930;-63
2022/09/28 05:44:09;;;;;;;;;;;;;;;;;;4935324;28;19922;-62
2022/09/28 05:46:37;;;;;;;;;;;;;;;;;;4923760;28;19926;-63
2022/09/28 05:49:02;;;;;;;;;;;;;;;;;;4923808;28;20525;-62
2022/09/28 05:51:27;;;;;;;;;;;;;;;;;;4915133;28;19922;-62
2022/09/28 05:53:53;;;;;;;;;;;;;;;;;;4940582;28;19933;-63
2022/09/28 05:56:18;;;;;;;;;;;;;;;;;;4940884;28;21805;-63
2022/09/28 05:58:43;;;;;;;;;;;;;;;;;;4931083;28;20472;-62
2022/09/28 06:01:09;;;;;;;;;;;;;;;;;;4923924;28;19923;-63
2022/09/28 06:03:34;;;;;;;;;;;;;;;;;;4926346;28;20025;-63
2022/09/28 06:06:00;;;;;;;;;;;;;;;;;;4919026;28;19949;-63
2022/09/28 06:08:25;;;;;;;;;;;;;;;;;;4923718;28;19922;-62
2022/09/28 06:10:50;;;;;;;;;;;;;;;;;;4937605;28;19919;-63
2022/09/28 06:13:16;;;;;;;;;;;;;;;;;;4925330;28;19922;-63
2022/09/28 06:15:42;;;;;;;;;;;;;;;;;;4939695;28;20648;-63
2022/09/28 06:18:07;;;;;;;;;;;;;;;;;;4929319;28;19918;-63
2022/09/28 06:20:33;;;;;;;;;;;;;;;;;;4939887;28;19922;-62
2022/09/28 06:23:01;;;;;;;;;;;;;;;;;;4921943;28;19922;-64
2022/09/28 06:25:26;;;;;;;;;;;;;;;;;;4940058;28;21965;-63
2022/09/28 06:27:52;;;;;;;;;;;;;;;;;;4940016;28;19984;-64
2022/09/28 06:30:17;;;;;;;;;;;;;;;;;;4940115;28;19970;-64
2022/09/28 06:32:43;;;;;;;;;;;;;;;;;;4940592;28;19922;-64
2022/09/28 06:35:08;;;;;;;;;;;;;;;;;;4941730;28;19926;-65
2022/09/28 06:37:34;;;;;;;;;;;;;;;;;;4935514;28;20243;-65
2022/09/28 06:40:02;;;;;;;;;;;;;;;;;;4922804;28;19926;-65
2022/09/28 06:42:27;;;;;;;;;;;;;;;;;;4921513;28;19927;-66
2022/09/28 06:44:55;;;;;;;;;;;;;;;;;;4923199;28;20275;-65
2022/09/28 06:47:20;;;;;;;;;;;;;;;;;;4909281;28;20028;-65
2022/09/28 06:49:54;;;;;;;;;;;;;;;;;;4929108;28;20029;-65
2022/09/28 06:52:19;;;;;;;;;;;;;;;;;;4923571;28;20014;-65
2022/09/28 06:54:47;;;;;;;;;;;;;;;;;;4919371;28;20004;-63
2022/09/28 06:57:12;;;;;;;;;;;;;;;;;;4937369;28;20054;-65
2022/09/28 06:59:38;;;;;;;;;;;;;;;;;;4924965;28;19922;-64
2022/09/28 07:02:06;;;;;;;;;;;;;;;;;;4938746;28;20497;-67
2022/09/28 07:04:33;;;;;;;;;;;;;;;;;;4925097;28;20402;-64
2022/09/28 07:06:59;;;;;;;;;;;;;;;;;;4921136;28;19973;-65
2022/09/28 07:09:24;;;;;;;;;;;;;;;;;;4937504;28;19922;-65
2022/09/28 07:11:51;;;;;;;;;;;;;;;;;;4925823;28;20382;-66
2022/09/28 07:14:16;;;;;;;;;;;;;;;;;;4938663;28;19923;-66
2022/09/28 07:16:42;;;;;;;;;;;;;;;;;;4926446;28;19924;-66
2022/09/28 07:19:13;;;;;;;;;;;;;;;;;;4925426;28;19918;-66
2022/09/28 07:21:38;;;;;;;;;;;;;;;;;;4925467;28;20441;-65
2022/09/28 07:27:20;;;;;;;;;;;;;;;;;;4939259;28;19945;-67
2022/09/28 07:29:45;;;;;;;;;;;;;;;;;;4940373;28;20622;-66
2022/09/28 07:32:11;;;;;;;;;;;;;;;;;;4919296;28;19926;-67
2022/09/28 07:34:42;;;;;;;;;;;;;;;;;;4927932;28;19922;-67
2022/09/28 07:37:09;;;;;;;;;;;;;;;;;;4936519;28;20861;-66
2022/09/28 07:41:10;;;;;;;;;;;;;;;;;;4918276;28;20001;-66
2022/09/28 07:42:20;;;;;;;;;;;;;;;;;;4919845;28;20982;-66
2022/09/28 07:44:45;;;;;;;;;;;;;;;;;;4936787;28;19923;-66
2022/09/28 07:47:17;;;;;;;;;;;;;;;;;;4938921;28;20384;-67
2022/09/28 07:49:43;;;;;;;;;;;;;;;;;;4937615;28;19934;-68
2022/09/28 07:52:11;;;;;;;;;;;;;;;;;;4939616;28;20053;-67
2022/09/28 07:54:38;;;;;;;;;;;;;;;;;;4937913;28;20307;-66
2022/09/28 07:57:05;;;;;;;;;;;;;;;;;;4927625;28;21747;-66
2022/09/28 07:59:31;;;;;;;;;;;;;;;;;;4922802;28;20379;-65
2022/09/28 08:01:57;;;;;;;;;;;;;;;;;;4917961;28;19930;-67
2022/09/28 08:04:24;;;;;;;;;;;;;;;;;;4923208;28;19922;-67
2022/09/28 08:06:49;;;;;;;;;;;;;;;;;;4937873;28;19950;-67
2022/09/28 08:09:15;;;;;;;;;;;;;;;;;;4937031;28;19922;-67
2022/09/28 08:11:42;;;;;;;;;;;;;;;;;;4939748;28;21065;-67
2022/09/28 08:14:09;;;;;;;;;;;;;;;;;;4937211;28;19923;-67
2022/09/28 08:16:35;;;;;;;;;;;;;;;;;;4938094;28;19968;-67
2022/09/28 08:19:00;;;;;;;;;;;;;;;;;;4940343;28;20508;-67
2022/09/28 08:21:44;;;;;;;;;;;;;;;;;;4936815;28;19925;-67
2022/09/28 08:24:23;;;;;;;;;;;;;;;;;;4936831;28;19922;-66
2022/09/28 08:26:54;;;;;;;;;;;;;;;;;;4925526;28;19929;-67
2022/09/28 08:34:55;;;;;;;;;;;;;;;;;;4938541;28;19922;-66
2022/09/28 08:37:21;;;;;;;;;;;;;;;;;;4937179;28;19977;-66
2022/09/28 08:39:47;;;;;;;;;;;;;;;;;;4909123;28;20483;-67
2022/09/28 08:42:14;;;;;;;;;;;;;;;;;;4936282;28;19918;-66
2022/09/28 08:44:40;;;;;;;;;;;;;;;;;;4934717;28;20004;-67
2022/09/28 08:47:05;;;;;;;;;;;;;;;;;;4938123;28;19918;-67
2022/09/28 08:49:33;;;;;;;;;;;;;;;;;;4942588;28;20482;-67
2022/09/28 08:51:58;;;;;;;;;;;;;;;;;;4938942;28;19929;-66
2022/09/28 08:54:26;;;;;;;;;;;;;;;;;;4939979;28;19933;-67
2022/09/28 08:56:52;;;;;;;;;;;;;;;;;;4940671;28;20009;-64
2022/09/28 08:59:20;;;;;;;;;;;;;;;;;;4941414;28;19926;-66
2022/09/28 09:01:45;;;;;;;;;;;;;;;;;;4938609;28;20004;-66
2022/09/28 09:04:14;;;;;;;;;;;;;;;;;;4937397;28;19941;-67
2022/09/28 09:06:39;;;;;;;;;;;;;;;;;;4938025;28;20405;-67
2022/09/28 09:09:12;;;;;;;;;;;;;;;;;;4934357;28;19933;-67
2022/09/28 09:11:37;;;;;;;;;;;;;;;;;;4907361;28;19923;-67
2022/09/28 09:14:02;;;;;;;;;;;;;;;;;;4920999;28;20293;-68
2022/09/28 09:19:11;;;;;;;;;;;;;;;;;;4941322;28;20320;-68
2022/09/28 09:21:37;;;;;;;;;;;;;;;;;;4931070;28;19926;-68
2022/09/28 09:24:04;;;;;;;;;;;;;;;;;;4912157;28;19977;-67
2022/09/28 09:26:33;;;;;;;;;;;;;;;;;;4940100;28;20009;-68
2022/09/28 09:29:03;;;;;;;;;;;;;;;;;;4915142;28;20405;-67
2022/09/28 09:31:29;;;;;;;;;;;;;;;;;;4940876;28;19957;-67
2022/09/28 09:33:54;;;;;;;;;;;;;;;;;;4925690;28;19922;-68
2022/09/28 09:36:22;;;;;;;;;;;;;;;;;;4930799;28;20388;-68
2022/09/28 09:38:47;;;;;;;;;;;;;;;;;;4918248;28;19922;-68
2022/09/28 09:41:12;;;;;;;;;;;;;;;;;;4911258;28;19922;-66
2022/09/28 09:43:40;;;;;;;;;;;;;;;;;;4941428;28;19922;-71
2022/09/28 09:46:06;;;;;;;;;;;;;;;;;;4930412;28;19922;-68
2022/09/28 09:48:31;;;;;;;;;;;;;;;;;;4915384;28;20499;-69
2022/09/28 09:50:58;;;;;;;;;;;;;;;;;;4941414;28;19934;-68
2022/09/28 09:53:23;;;;;;;;;;;;;;;;;;4933783;28;20400;-67
2022/09/28 09:55:58;;;;;;;;;;;;;;;;;;4937258;28;19918;-68
2022/09/28 09:58:23;;;;;;;;;;;;;;;;;;4918821;28;20013;-66
2022/09/28 10:00:49;;;;;;;;;;;;;;;;;;4928359;28;19937;-67
2022/09/28 10:03:14;;;;;;;;;;;;;;;;;;4942205;28;20155;-67
2022/09/28 10:05:40;;;;;;;;;;;;;;;;;;4937465;28;19925;-68
2022/09/28 10:08:05;;;;;;;;;;;;;;;;;;4933999;28;19922;-68
2022/09/28 10:10:33;;;;;;;;;;;;;;;;;;4934012;28;19956;-67
2022/09/28 10:13:01;;;;;;;;;;;;;;;;;;4935958;28;20028;-68
2022/09/28 10:15:27;;;;;;;;;;;;;;;;;;4922616;28;19930;-67
2022/09/28 10:17:55;;;;;;;;;;;;;;;;;;4921645;28;19953;-68
2022/09/28 10:20:27;;;;;;;;;;;;;;;;;;4922612;28;19973;-68
2022/09/28 10:22:53;;;;;;;;;;;;;;;;;;4912010;28;19923;-68
2022/09/28 10:25:20;;;;;;;;;;;;;;;;;;4922513;28;19929;-68
2022/09/28 10:27:46;;;;;;;;;;;;;;;;;;4930398;28;19950;-68
2022/09/28 10:30:11;;;;;;;;;;;;;;;;;;4935473;28;20366;-68
2022/09/28 10:32:54;;;;;;;;;;;;;;;;;;4935997;28;20562;-65
2022/09/28 10:35:19;;;;;;;;;;;;;;;;;;4935536;28;20061;-67
2022/09/28 10:37:46;;;;;;;;;;;;;;;;;;4937927;28;19996;-67
2022/09/28 10:40:13;;;;;;;;;;;;;;;;;;4932224;28;19984;-64
2022/09/28 10:42:41;;;;;;;;;;;;;;;;;;4937949;28;19969;-66
2022/09/28 10:45:06;;;;;;;;;;;;;;;;;;4926653;28;19921;-64
2022/09/28 10:47:34;;;;;;;;;;;;;;;;;;4914418;28;19938;-66
2022/09/28 10:49:59;;;;;;;;;;;;;;;;;;4924578;28;20290;-66
2022/09/28 10:52:25;;;;;;;;;;;;;;;;;;4931735;28;19936;-64
2022/09/28 10:54:51;;;;;;;;;;;;;;;;;;4923878;28;20057;-64
2022/09/28 10:57:18;;;;;;;;;;;;;;;;;;4938484;28;19922;-67
2022/09/28 10:59:46;;;;;;;;;;;;;;;;;;4917415;28;19926;-67
2022/09/28 11:02:11;;;;;;;;;;;;;;;;;;4937776;28;20070;-67
2022/09/28 11:04:36;;;;;;;;;;;;;;;;;;4927855;28;20468;-69
2022/09/28 11:07:06;;;;;;;;;;;;;;;;;;4928826;28;19922;-67
2022/09/28 11:09:31;;;;;;;;;;;;;;;;;;4925080;28;19968;-68
2022/09/28 11:11:56;;;;;;;;;;;;;;;;;;4919921;28;20394;-68
2022/09/28 11:14:22;;;;;;;;;;;;;;;;;;4924722;28;20040;-66
2022/09/28 11:20:07;;;;;;;;;;;;;;;;;;4932669;28;24229;-67
2022/09/28 11:22:33;;;;;;;;;;;;;;;;;;4938748;28;20309;-67
2022/09/28 11:24:58;;;;;;;;;;;;;;;;;;4926097;28;19922;-67
2022/09/28 11:27:26;;;;;;;;;;;;;;;;;;4917749;28;19949;-68
2022/09/28 11:29:52;;;;;;;;;;;;;;;;;;4923877;28;19919;-67
2022/09/28 11:32:20;;;;;;;;;;;;;;;;;;4915382;28;20389;-68
2022/09/28 11:34:46;;;;;;;;;;;;;;;;;;4918283;28;19923;-68
2022/09/28 11:37:12;;;;;;;;;;;;;;;;;;4938661;28;19929;-68
2022/09/28 11:39:37;;;;;;;;;;;;;;;;;;4936943;28;19922;-68
2022/09/28 11:42:03;;;;;;;;;;;;;;;;;;4938155;28;19965;-66
2022/09/28 11:44:28;;;;;;;;;;;;;;;;;;4938041;28;19918;-67
2022/09/28 11:49:41;;;;;;;;;;;;;;;;;;4935466;28;20460;-67
2022/09/28 11:52:09;;;;;;;;;;;;;;;;;;4921050;28;19922;-63
2022/09/28 11:54:37;;;;;;;;;;;;;;;;;;4919193;28;19945;-64
2022/09/28 11:57:05;;;;;;;;;;;;;;;;;;4909826;28;19981;-65
2022/09/28 11:59:32;;;;;;;;;;;;;;;;;;4936670;28;20068;-65
2022/09/28 12:01:58;;;;;;;;;;;;;;;;;;4936489;28;19922;-67
2022/09/28 12:04:25;;;;;;;;;;;;;;;;;;4909292;28;19918;-67
2022/09/28 12:06:51;;;;;;;;;;;;;;;;;;4934585;28;19926;-68
2022/09/28 12:12:33;;;;;;;;;;;;;;;;;;4937952;28;19964;-67
2022/09/28 12:14:58;;;;;;;;;;;;;;;;;;4934789;28;19929;-67
2022/09/28 12:17:26;;;;;;;;;;;;;;;;;;4916382;28;19918;-67
2022/09/28 12:19:54;;;;;;;;;;;;;;;;;;4920553;28;20736;-68
2022/09/28 12:22:19;;;;;;;;;;;;;;;;;;4910220;28;20289;-68
2022/09/28 12:24:44;;;;;;;;;;;;;;;;;;4921725;28;19919;-67
2022/09/28 12:27:10;;;;;;;;;;;;;;;;;;4930893;28;19922;-65
2022/09/28 12:29:38;;;;;;;;;;;;;;;;;;4922131;28;19945;-66
2022/09/28 12:32:04;;;;;;;;;;;;;;;;;;4923096;28;19922;-67
2022/09/28 12:34:29;;;;;;;;;;;;;;;;;;4938967;28;19957;-67
2022/09/28 12:36:57;;;;;;;;;;;;;;;;;;4921176;28;19922;-66
2022/09/28 12:39:22;;;;;;;;;;;;;;;;;;4938584;28;19929;-66
2022/09/28 12:41:48;;;;;;;;;;;;;;;;;;4922247;28;19918;-68
2022/09/28 12:44:16;;;;;;;;;;;;;;;;;;4930046;28;20040;-66
2022/09/28 12:46:41;;;;;;;;;;;;;;;;;;4922257;28;20052;-66
2022/09/28 12:49:07;;;;;;;;;;;;;;;;;;4927901;28;19928;-67
2022/09/28 12:51:32;;;;;;;;;;;;;;;;;;4918447;28;21091;-68
2022/09/28 12:53:57;;;;;;;;;;;;;;;;;;4927436;28;20539;-67
2022/09/28 12:59:39;;;;;;;;;;;;;;;;;;4941911;28;19969;-67
2022/09/28 13:02:05;;;;;;;;;;;;;;;;;;4938114;28;19922;-67
2022/09/28 13:04:33;;;;;;;;;;;;;;;;;;4911910;28;19929;-68
2022/09/28 13:06:59;;;;;;;;;;;;;;;;;;4941657;28;19918;-67
2022/09/28 13:09:24;;;;;;;;;;;;;;;;;;4919582;28;20470;-67
2022/09/28 13:11:52;;;;;;;;;;;;;;;;;;4942161;28;19926;-68
2022/09/28 13:14:20;;;;;;;;;;;;;;;;;;4909874;28;19922;-68
2022/09/28 13:16:46;;;;;;;;;;;;;;;;;;4942217;28;19972;-68
2022/09/28 13:19:11;;;;;;;;;;;;;;;;;;4924183;28;20855;-67
2022/09/28 13:21:37;;;;;;;;;;;;;;;;;;4935344;28;19922;-68
2022/09/28 13:24:04;;;;;;;;;;;;;;;;;;4940587;28;19922;-66
2022/09/28 13:26:30;;;;;;;;;;;;;;;;;;4936217;28;19926;-67
2022/09/28 13:28:55;;;;;;;;;;;;;;;;;;4939494;28;20030;-67
2022/09/28 13:31:27;;;;;;;;;;;;;;;;;;4930447;28;19950;-66
2022/09/28 13:33:53;;;;;;;;;;;;;;;;;;4938106;28;20434;-68
2022/09/28 13:36:18;;;;;;;;;;;;;;;;;;4920703;28;19923;-67
2022/09/28 13:38:44;;;;;;;;;;;;;;;;;;4939614;28;20429;-68
2022/09/28 13:41:11;;;;;;;;;;;;;;;;;;4936799;28;19926;-66
2022/09/28 13:43:37;;;;;;;;;;;;;;;;;;4937840;28;21243;-66
2022/09/28 13:46:03;;;;;;;;;;;;;;;;;;4933968;28;19965;-67
2022/09/28 13:48:28;;;;;;;;;;;;;;;;;;4933684;28;19926;-65
2022/09/28 13:50:57;;;;;;;;;;;;;;;;;;4936339;28;19925;-66
2022/09/28 13:53:22;;;;;;;;;;;;;;;;;;4917688;28;20513;-66
2022/09/28 13:55:52;;;;;;;;;;;;;;;;;;4919776;28;19923;-67
2022/09/28 13:58:18;;;;;;;;;;;;;;;;;;4900197;28;19919;-67
2022/09/28 14:00:44;;;;;;;;;;;;;;;;;;4920334;28;20038;-65
2022/09/28 14:03:12;;;;;;;;;;;;;;;;;;4892212;28;19922;-68
2022/09/28 14:05:42;;;;;;;;;;;;;;;;;;4916774;28;19930;-66
2022/09/28 14:08:07;;;;;;;;;;;;;;;;;;4883421;28;19930;-67
2022/09/28 14:10:35;;;;;;;;;;;;;;;;;;4909063;28;20044;-67
2022/09/28 14:13:03;;;;;;;;;;;;;;;;;;4896700;29;19926;-67
2022/09/28 14:15:31;;;;;;;;;;;;;;;;;;4911021;28;19923;-68
2022/09/28 14:17:56;;;;;;;;;;;;;;;;;;4901083;29;19954;-66
2022/09/28 14:20:24;;;;;;;;;;;;;;;;;;4902828;28;19930;-67
2022/09/28 14:22:49;;;;;;;;;;;;;;;;;;4896576;28;19989;-66
2022/09/28 14:25:17;;;;;;;;;;;;;;;;;;4898607;29;19922;-67
2022/09/28 14:27:43;;;;;;;;;;;;;;;;;;4912634;28;19918;-66
2022/09/28 14:30:10;;;;;;;;;;;;;;;;;;4910747;28;19922;-67
2022/09/28 14:32:36;;;;;;;;;;;;;;;;;;4914595;28;20374;-67
2022/09/28 14:35:03;;;;;;;;;;;;;;;;;;4882841;29;20394;-67
2022/09/28 14:42:58;;;;;;;;;;;;;;;;;;4897742;28;19934;-65
2022/09/28 14:45:23;;;;;;;;;;;;;;;;;;4901333;28;19970;-67
2022/09/28 14:47:53;;;;;;;;;;;;;;;;;;4903476;28;19965;-67
2022/09/28 14:50:21;;;;;;;;;;;;;;;;;;4916247;28;19979;-67
2022/09/28 14:52:46;;;;;;;;;;;;;;;;;;4917543;28;19937;-67
2022/09/28 14:55:12;;;;;;;;;;;;;;;;;;4896908;29;19926;-68
2022/09/28 14:57:37;;;;;;;;;;;;;;;;;;4897772;28;19918;-67
2022/09/28 15:00:05;;;;;;;;;;;;;;;;;;4916298;28;20390;-67
2022/09/28 15:02:33;;;;;;;;;;;;;;;;;;4915094;28;19923;-67
2022/09/28 15:05:01;;;;;;;;;;;;;;;;;;4904392;28;19922;-68
2022/09/28 15:07:27;;;;;;;;;;;;;;;;;;4911272;28;20578;-64
2022/09/28 15:09:53;;;;;;;;;;;;;;;;;;4911877;28;19926;-67
2022/09/28 15:12:18;;;;;;;;;;;;;;;;;;4913755;28;19926;-66
2022/09/28 15:14:44;;;;;;;;;;;;;;;;;;4914380;28;19919;-66
2022/09/28 15:17:09;;;;;;;;;;;;;;;;;;4900582;28;19923;-66
2022/09/28 15:19:34;;;;;;;;;;;;;;;;;;4899013;28;19922;-68
2022/09/28 15:22:00;;;;;;;;;;;;;;;;;;4899058;28;19965;-66
2022/09/28 15:24:26;;;;;;;;;;;;;;;;;;4900802;28;19922;-67
2022/09/28 15:26:54;;;;;;;;;;;;;;;;;;4916791;28;20689;-67
2022/09/28 15:29:19;;;;;;;;;;;;;;;;;;4886959;28;20102;-67
2022/09/28 15:31:45;;;;;;;;;;;;;;;;;;4912243;28;19918;-67
2022/09/28 15:36:55;;;;;;;;;;;;;;;;;;4908361;28;20001;-67
2022/09/28 15:39:20;;;;;;;;;;;;;;;;;;4899125;28;20511;-66
2022/09/28 15:41:46;;;;;;;;;;;;;;;;;;4911105;28;20052;-67
2022/09/28 15:44:11;;;;;;;;;;;;;;;;;;4898676;29;20014;-67
2022/09/28 15:46:36;;;;;;;;;;;;;;;;;;4913339;28;19926;-67
2022/09/28 15:49:03;;;;;;;;;;;;;;;;;;4889381;28;19922;-66
2022/09/28 15:51:28;;;;;;;;;;;;;;;;;;4904143;28;19922;-67
2022/09/28 15:53:54;;;;;;;;;;;;;;;;;;4913038;28;19934;-68
2022/09/28 15:56:20;;;;;;;;;;;;;;;;;;4907765;29;19977;-68
2022/09/28 15:58:45;;;;;;;;;;;;;;;;;;4902941;28;19977;-67
2022/09/28 16:01:10;;;;;;;;;;;;;;;;;;4914111;28;19931;-68
2022/09/28 16:03:36;;;;;;;;;;;;;;;;;;4905304;29;21179;-67
2022/09/28 16:06:02;;;;;;;;;;;;;;;;;;4891240;29;19922;-67
2022/09/28 16:08:28;;;;;;;;;;;;;;;;;;4902156;28;19923;-67
2022/09/28 16:10:53;;;;;;;;;;;;;;;;;;4919130;28;19926;-66
2022/09/28 16:13:20;;;;;;;;;;;;;;;;;;4921633;28;21907;-67
2022/09/28 16:15:45;;;;;;;;;;;;;;;;;;4910661;28;19918;-66
2022/09/28 16:18:11;;;;;;;;;;;;;;;;;;4921042;28;19922;-67
2022/09/28 16:20:37;;;;;;;;;;;;;;;;;;4893579;29;19922;-67
2022/09/28 16:23:04;;;;;;;;;;;;;;;;;;4908887;28;19930;-67
2022/09/28 16:25:30;;;;;;;;;;;;;;;;;;4921481;28;19923;-67
2022/09/28 16:27:55;;;;;;;;;;;;;;;;;;4897831;28;19933;-66
2022/09/28 16:30:23;;;;;;;;;;;;;;;;;;4916131;28;20766;-67
2022/09/28 16:33:00;;;;;;;;;;;;;;;;;;4902307;29;19922;-67
2022/09/28 16:35:26;;;;;;;;;;;;;;;;;;4921552;28;20009;-67
2022/09/28 16:37:51;;;;;;;;;;;;;;;;;;4921668;28;19933;-67
2022/09/28 16:40:17;;;;;;;;;;;;;;;;;;4907705;29;19970;-67
2022/09/28 16:45:27;;;;;;;;;;;;;;;;;;4919397;28;19922;-66
2022/09/28 16:47:53;;;;;;;;;;;;;;;;;;4890631;28;19923;-66
2022/09/28 16:50:19;;;;;;;;;;;;;;;;;;4920799;28;20045;-65
2022/09/28 16:55:28;;;;;;;;;;;;;;;;;;4919297;28;19985;-66
2022/09/28 16:57:54;;;;;;;;;;;;;;;;;;4896440;28;19926;-66
2022/09/28 17:00:22;;;;;;;;;;;;;;;;;;4895985;29;19931;-66
2022/09/28 17:02:49;;;;;;;;;;;;;;;;;;4907281;29;19919;-67
2022/09/28 17:05:15;;;;;;;;;;;;;;;;;;4903582;28;20016;-67
2022/09/28 17:10:58;;;;;;;;;;;;;;;;;;4917004;28;19929;-67
2022/09/28 17:13:33;;;;;;;;;;;;;;;;;;4919453;28;19954;-66
2022/09/28 17:15:59;;;;;;;;;;;;;;;;;;4897156;28;20048;-66
2022/09/28 17:18:25;;;;;;;;;;;;;;;;;;4918741;28;20056;-66
2022/09/28 17:20:50;;;;;;;;;;;;;;;;;;4904175;29;19944;-67
2022/09/28 17:23:16;;;;;;;;;;;;;;;;;;4916880;28;19927;-65
2022/09/28 17:25:41;;;;;;;;;;;;;;;;;;4914595;28;19990;-66
2022/09/28 17:28:07;;;;;;;;;;;;;;;;;;4916799;28;20009;-67
2022/09/28 17:30:32;;;;;;;;;;;;;;;;;;4906855;28;20735;-66